sensor_id;sensor_type;location;lat;lon;timestamp;P1;P2;P0
61592;PMS5003;47485;51.378;-1.342;2023-04-03T00:01:19;2;2;
61592;PMS5003;47485;51.378;-1.342;2023-04-03T00:03:46;5;5;
61592;PMS5003;47485;51.378;-1.342;2023-04-03T00:06:13;4;4;
61592;PMS5003;47485;51.378;-1.342;2023-04-03T00:08:40;4;4;
61592;PMS5003;47485;51.378;-1.342;2023-04-03T00:11:07;7;4;
61592;PMS5003;47485;51.378;-1.342;2023-04-03T00:13:35;7;5;
61592;PMS5003;47485;51.378;-1.342;2023-04-03T00:16:02;5;5;
61592;PMS5003;47485;51.378;-1.342;2023-04-03T00:18:29;9;9;
61592;PMS5003;47485;51.378;-1.342;2023-04-03T00:20:56;6;5;
61592;PMS5003;47485;51.378;-1.342;2023-04-03T00:23:23;5;4;
61592;PMS5003;47485;51.378;-1.342;2023-04-03T00:25:50;4;4;
61592;PMS5003;47485;51.378;-1.342;2023-04-03T00:28:17;9;5;
61592;PMS5003;47485;51.378;-1.342;2023-04-03T00:30:44;7;6;
61592;PMS5003;47485;51.378;-1.342;2023-04-03T00:33:11;6;5;
61592;PMS5003;47485;51.378;-1.342;2023-04-03T00:35:38;5;5;
61592;PMS5003;47485;51.378;-1.342;2023-04-03T00:38:05;5;5;
61592;PMS5003;47485;51.378;-1.342;2023-04-03T00:40:33;5;4;
61592;PMS5003;47485;51.378;-1.342;2023-04-03T00:43:05;6;5;
61592;PMS5003;47485;51.378;-1.342;2023-04-03T00:45:40;5;3;
61592;PMS5003;47485;51.378;-1.342;2023-04-03T00:48:10;6;4;
61592;PMS5003;47485;51.378;-1.342;2023-04-03T00:50:40;3;3;
61592;PMS5003;47485;51.378;-1.342;2023-04-03T00:53:11;5;3;
61592;PMS5003;47485;51.378;-1.342;2023-04-03T00:55:42;9;5;
61592;PMS5003;47485;51.378;-1.342;2023-04-03T00:58:10;4;4;
61592;PMS5003;47485;51.378;-1.342;2023-04-03T01:00:38;4;4;
61592;PMS5003;47485;51.378;-1.342;2023-04-03T01:03:09;8;4;
61592;PMS5003;47485;51.378;-1.342;2023-04-03T01:05:36;5;3;
61592;PMS5003;47485;51.378;-1.342;2023-04-03T01:08:02;6;4;
61592;PMS5003;47485;51.378;-1.342;2023-04-03T01:10:30;3;3;
61592;PMS5003;47485;51.378;-1.342;2023-04-03T01:12:58;7;6;
61592;PMS5003;47485;51.378;-1.342;2023-04-03T01:15:27;5;4;
61592;PMS5003;47485;51.378;-1.342;2023-04-03T01:17:54;5;4;
61592;PMS5003;47485;51.378;-1.342;2023-04-03T01:20:31;9;6;
61592;PMS5003;47485;51.378;-1.342;2023-04-03T01:23:14;7;4;
61592;PMS5003;47485;51.378;-1.342;2023-04-03T01:25:49;9;5;
61592;PMS5003;47485;51.378;-1.342;2023-04-03T01:28:19;2;2;
61592;PMS5003;47485;51.378;-1.342;2023-04-03T01:30:48;4;4;
61592;PMS5003;47485;51.378;-1.342;2023-04-03T01:33:22;6;6;
61592;PMS5003;47485;51.378;-1.342;2023-04-03T01:35:49;5;5;
61592;PMS5003;47485;51.378;-1.342;2023-04-03T01:38:15;3;3;
61592;PMS5003;47485;51.378;-1.342;2023-04-03T01:40:42;7;4;
61592;PMS5003;47485;51.378;-1.342;2023-04-03T01:43:09;5;4;
61592;PMS5003;47485;51.378;-1.342;2023-04-03T01:45:36;2;2;
61592;PMS5003;47485;51.378;-1.342;2023-04-03T01:48:03;5;5;
61592;PMS5003;47485;51.378;-1.342;2023-04-03T01:50:30;8;8;
61592;PMS5003;47485;51.378;-1.342;2023-04-03T01:52:58;7;3;
61592;PMS5003;47485;51.378;-1.342;2023-04-03T01:55:25;3;3;
61592;PMS5003;47485;51.378;-1.342;2023-04-03T01:57:51;6;4;
61592;PMS5003;47485;51.378;-1.342;2023-04-03T02:00:19;4;3;
61592;PMS5003;47485;51.378;-1.342;2023-04-03T02:02:46;3;3;
61592;PMS5003;47485;51.378;-1.342;2023-04-03T02:05:13;5;5;
61592;PMS5003;47485;51.378;-1.342;2023-04-03T02:07:40;4;4;
61592;PMS5003;47485;51.378;-1.342;2023-04-03T02:10:07;3;3;
61592;PMS5003;47485;51.378;-1.342;2023-04-03T02:12:34;5;2;
61592;PMS5003;47485;51.378;-1.342;2023-04-03T02:15:01;5;4;
61592;PMS5003;47485;51.378;-1.342;2023-04-03T02:17:28;6;4;
61592;PMS5003;47485;51.378;-1.342;2023-04-03T02:19:55;3;3;
61592;PMS5003;47485;51.378;-1.342;2023-04-03T02:22:21;5;3;
61592;PMS5003;47485;51.378;-1.342;2023-04-03T02:24:48;4;4;
61592;PMS5003;47485;51.378;-1.342;2023-04-03T02:27:15;3;3;
61592;PMS5003;47485;51.378;-1.342;2023-04-03T02:29:42;4;3;
61592;PMS5003;47485;51.378;-1.342;2023-04-03T02:32:09;6;4;
61592;PMS5003;47485;51.378;-1.342;2023-04-03T02:34:36;7;4;
61592;PMS5003;47485;51.378;-1.342;2023-04-03T02:37:02;7;3;
61592;PMS5003;47485;51.378;-1.342;2023-04-03T02:39:29;7;5;
61592;PMS5003;47485;51.378;-1.342;2023-04-03T02:41:56;5;5;
61592;PMS5003;47485;51.378;-1.342;2023-04-03T02:44:23;5;3;
61592;PMS5003;47485;51.378;-1.342;2023-04-03T02:46:51;3;2;
61592;PMS5003;47485;51.378;-1.342;2023-04-03T02:49:17;8;3;
61592;PMS5003;47485;51.378;-1.342;2023-04-03T02:51:44;4;3;
61592;PMS5003;47485;51.378;-1.342;2023-04-03T02:54:11;3;3;
61592;PMS5003;47485;51.378;-1.342;2023-04-03T02:56:38;3;3;
61592;PMS5003;47485;51.378;-1.342;2023-04-03T02:59:05;4;4;
61592;PMS5003;47485;51.378;-1.342;2023-04-03T03:01:32;4;3;
61592;PMS5003;47485;51.378;-1.342;2023-04-03T03:03:59;3;3;
61592;PMS5003;47485;51.378;-1.342;2023-04-03T03:06:26;4;4;
61592;PMS5003;47485;51.378;-1.342;2023-04-03T03:08:53;5;3;
61592;PMS5003;47485;51.378;-1.342;2023-04-03T03:11:20;4;3;
61592;PMS5003;47485;51.378;-1.342;2023-04-03T03:13:46;4;4;
61592;PMS5003;47485;51.378;-1.342;2023-04-03T03:16:13;5;3;
61592;PMS5003;47485;51.378;-1.342;2023-04-03T03:18:40;4;4;
61592;PMS5003;47485;51.378;-1.342;2023-04-03T03:21:08;4;3;
61592;PMS5003;47485;51.378;-1.342;2023-04-03T03:23:36;5;3;
61592;PMS5003;47485;51.378;-1.342;2023-04-03T03:26:04;2;2;
61592;PMS5003;47485;51.378;-1.342;2023-04-03T03:28:34;2;2;
61592;PMS5003;47485;51.378;-1.342;2023-04-03T03:31:01;5;4;
61592;PMS5003;47485;51.378;-1.342;2023-04-03T03:33:29;4;4;
61592;PMS5003;47485;51.378;-1.342;2023-04-03T03:35:56;4;3;
61592;PMS5003;47485;51.378;-1.342;2023-04-03T03:38:23;4;3;
61592;PMS5003;47485;51.378;-1.342;2023-04-03T03:40:50;4;3;
61592;PMS5003;47485;51.378;-1.342;2023-04-03T03:43:17;4;2;
61592;PMS5003;47485;51.378;-1.342;2023-04-03T03:45:44;4;2;
61592;PMS5003;47485;51.378;-1.342;2023-04-03T03:48:16;5;3;
61592;PMS5003;47485;51.378;-1.342;2023-04-03T03:50:42;6;3;
61592;PMS5003;47485;51.378;-1.342;2023-04-03T03:53:09;2;2;
61592;PMS5003;47485;51.378;-1.342;2023-04-03T03:55:36;6;4;
61592;PMS5003;47485;51.378;-1.342;2023-04-03T03:58:03;2;2;
61592;PMS5003;47485;51.378;-1.342;2023-04-03T04:00:30;2;2;
61592;PMS5003;47485;51.378;-1.342;2023-04-03T04:02:58;4;3;
61592;PMS5003;47485;51.378;-1.342;2023-04-03T04:05:24;4;3;
61592;PMS5003;47485;51.378;-1.342;2023-04-03T04:07:51;2;2;
61592;PMS5003;47485;51.378;-1.342;2023-04-03T04:10:18;3;3;
61592;PMS5003;47485;51.378;-1.342;2023-04-03T04:12:45;4;3;
61592;PMS5003;47485;51.378;-1.342;2023-04-03T04:15:12;4;4;
61592;PMS5003;47485;51.378;-1.342;2023-04-03T04:17:39;3;3;
61592;PMS5003;47485;51.378;-1.342;2023-04-03T04:20:06;2;2;
61592;PMS5003;47485;51.378;-1.342;2023-04-03T04:22:34;1;1;
61592;PMS5003;47485;51.378;-1.342;2023-04-03T04:25:01;2;2;
61592;PMS5003;47485;51.378;-1.342;2023-04-03T04:27:28;4;4;
61592;PMS5003;47485;51.378;-1.342;2023-04-03T04:29:54;3;3;
61592;PMS5003;47485;51.378;-1.342;2023-04-03T04:32:21;8;6;
61592;PMS5003;47485;51.378;-1.342;2023-04-03T04:34:48;6;4;
61592;PMS5003;47485;51.378;-1.342;2023-04-03T04:37:15;6;5;
61592;PMS5003;47485;51.378;-1.342;2023-04-03T04:39:42;4;3;
61592;PMS5003;47485;51.378;-1.342;2023-04-03T04:42:08;2;2;
61592;PMS5003;47485;51.378;-1.342;2023-04-03T04:44:35;7;3;
61592;PMS5003;47485;51.378;-1.342;2023-04-03T04:47:02;4;4;
61592;PMS5003;47485;51.378;-1.342;2023-04-03T04:49:29;6;5;
61592;PMS5003;47485;51.378;-1.342;2023-04-03T04:51:56;7;7;
61592;PMS5003;47485;51.378;-1.342;2023-04-03T04:54:23;8;5;
61592;PMS5003;47485;51.378;-1.342;2023-04-03T04:56:49;8;6;
61592;PMS5003;47485;51.378;-1.342;2023-04-03T04:59:17;6;6;
61592;PMS5003;47485;51.378;-1.342;2023-04-03T05:01:44;6;6;
61592;PMS5003;47485;51.378;-1.342;2023-04-03T05:04:11;10;7;
61592;PMS5003;47485;51.378;-1.342;2023-04-03T05:06:38;6;5;
61592;PMS5003;47485;51.378;-1.342;2023-04-03T05:09:04;7;7;
61592;PMS5003;47485;51.378;-1.342;2023-04-03T05:11:32;7;5;
61592;PMS5003;47485;51.378;-1.342;2023-04-03T05:13:59;6;6;
61592;PMS5003;47485;51.378;-1.342;2023-04-03T05:16:26;11;10;
61592;PMS5003;47485;51.378;-1.342;2023-04-03T05:18:53;6;5;
61592;PMS5003;47485;51.378;-1.342;2023-04-03T05:21:19;5;5;
61592;PMS5003;47485;51.378;-1.342;2023-04-03T05:23:46;7;6;
61592;PMS5003;47485;51.378;-1.342;2023-04-03T05:26:13;6;6;
61592;PMS5003;47485;51.378;-1.342;2023-04-03T05:28:40;8;5;
61592;PMS5003;47485;51.378;-1.342;2023-04-03T05:31:07;6;4;
61592;PMS5003;47485;51.378;-1.342;2023-04-03T05:33:34;7;7;
61592;PMS5003;47485;51.378;-1.342;2023-04-03T05:36:02;7;5;
61592;PMS5003;47485;51.378;-1.342;2023-04-03T05:38:30;9;7;
61592;PMS5003;47485;51.378;-1.342;2023-04-03T05:40:57;3;3;
61592;PMS5003;47485;51.378;-1.342;2023-04-03T05:43:24;8;5;
61592;PMS5003;47485;51.378;-1.342;2023-04-03T05:45:51;4;4;
61592;PMS5003;47485;51.378;-1.342;2023-04-03T05:48:18;8;6;
61592;PMS5003;47485;51.378;-1.342;2023-04-03T05:50:45;7;6;
61592;PMS5003;47485;51.378;-1.342;2023-04-03T05:53:13;6;5;
61592;PMS5003;47485;51.378;-1.342;2023-04-03T05:55:44;7;6;
61592;PMS5003;47485;51.378;-1.342;2023-04-03T05:58:11;6;6;
61592;PMS5003;47485;51.378;-1.342;2023-04-03T06:00:37;12;10;
61592;PMS5003;47485;51.378;-1.342;2023-04-03T06:03:04;9;9;
61592;PMS5003;47485;51.378;-1.342;2023-04-03T06:05:31;10;8;
61592;PMS5003;47485;51.378;-1.342;2023-04-03T06:07:58;8;8;
61592;PMS5003;47485;51.378;-1.342;2023-04-03T06:10:25;8;7;
61592;PMS5003;47485;51.378;-1.342;2023-04-03T06:12:52;9;8;
61592;PMS5003;47485;51.378;-1.342;2023-04-03T06:15:19;8;7;
61592;PMS5003;47485;51.378;-1.342;2023-04-03T06:17:46;7;6;
61592;PMS5003;47485;51.378;-1.342;2023-04-03T06:20:13;7;6;
61592;PMS5003;47485;51.378;-1.342;2023-04-03T06:22:40;7;6;
61592;PMS5003;47485;51.378;-1.342;2023-04-03T06:25:07;6;6;
61592;PMS5003;47485;51.378;-1.342;2023-04-03T06:27:36;7;6;
61592;PMS5003;47485;51.378;-1.342;2023-04-03T06:30:03;5;5;
61592;PMS5003;47485;51.378;-1.342;2023-04-03T06:32:33;6;6;
61592;PMS5003;47485;51.378;-1.342;2023-04-03T06:35:00;6;4;
61592;PMS5003;47485;51.378;-1.342;2023-04-03T06:37:27;10;7;
61592;PMS5003;47485;51.378;-1.342;2023-04-03T06:39:53;12;9;
61592;PMS5003;47485;51.378;-1.342;2023-04-03T06:42:20;13;10;
61592;PMS5003;47485;51.378;-1.342;2023-04-03T06:44:46;10;9;
61592;PMS5003;47485;51.378;-1.342;2023-04-03T06:47:13;11;9;
61592;PMS5003;47485;51.378;-1.342;2023-04-03T06:49:41;14;11;
61592;PMS5003;47485;51.378;-1.342;2023-04-03T06:52:09;11;10;
61592;PMS5003;47485;51.378;-1.342;2023-04-03T06:54:36;9;8;
61592;PMS5003;47485;51.378;-1.342;2023-04-03T06:57:03;12;10;
61592;PMS5003;47485;51.378;-1.342;2023-04-03T06:59:30;12;9;
61592;PMS5003;47485;51.378;-1.342;2023-04-03T07:01:58;13;11;
61592;PMS5003;47485;51.378;-1.342;2023-04-03T07:04:25;14;12;
61592;PMS5003;47485;51.378;-1.342;2023-04-03T07:06:52;11;10;
61592;PMS5003;47485;51.378;-1.342;2023-04-03T07:09:19;12;11;
61592;PMS5003;47485;51.378;-1.342;2023-04-03T07:11:45;13;10;
61592;PMS5003;47485;51.378;-1.342;2023-04-03T07:14:12;12;11;
61592;PMS5003;47485;51.378;-1.342;2023-04-03T07:16:39;15;13;
61592;PMS5003;47485;51.378;-1.342;2023-04-03T07:19:06;11;10;
61592;PMS5003;47485;51.378;-1.342;2023-04-03T07:21:33;14;12;
61592;PMS5003;47485;51.378;-1.342;2023-04-03T07:24:00;13;12;
61592;PMS5003;47485;51.378;-1.342;2023-04-03T07:26:27;15;14;
61592;PMS5003;47485;51.378;-1.342;2023-04-03T07:28:54;16;10;
61592;PMS5003;47485;51.378;-1.342;2023-04-03T07:31:21;15;11;
61592;PMS5003;47485;51.378;-1.342;2023-04-03T07:33:48;12;10;
61592;PMS5003;47485;51.378;-1.342;2023-04-03T07:36:15;14;11;
61592;PMS5003;47485;51.378;-1.342;2023-04-03T07:38:44;10;9;
61592;PMS5003;47485;51.378;-1.342;2023-04-03T07:41:11;14;12;
61592;PMS5003;47485;51.378;-1.342;2023-04-03T07:43:40;12;9;
61592;PMS5003;47485;51.378;-1.342;2023-04-03T07:46:07;14;11;
61592;PMS5003;47485;51.378;-1.342;2023-04-03T07:48:34;12;12;
61592;PMS5003;47485;51.378;-1.342;2023-04-03T07:51:03;11;9;
61592;PMS5003;47485;51.378;-1.342;2023-04-03T07:53:31;12;11;
61592;PMS5003;47485;51.378;-1.342;2023-04-03T07:55:59;12;9;
61592;PMS5003;47485;51.378;-1.342;2023-04-03T07:58:26;7;6;
61592;PMS5003;47485;51.378;-1.342;2023-04-03T08:00:53;11;8;
61592;PMS5003;47485;51.378;-1.342;2023-04-03T08:03:20;8;7;
61592;PMS5003;47485;51.378;-1.342;2023-04-03T08:05:47;8;8;
61592;PMS5003;47485;51.378;-1.342;2023-04-03T08:08:16;8;6;
61592;PMS5003;47485;51.378;-1.342;2023-04-03T08:10:48;9;8;
61592;PMS5003;47485;51.378;-1.342;2023-04-03T08:13:15;11;9;
61592;PMS5003;47485;51.378;-1.342;2023-04-03T08:15:42;9;7;
61592;PMS5003;47485;51.378;-1.342;2023-04-03T08:18:09;12;9;
61592;PMS5003;47485;51.378;-1.342;2023-04-03T08:20:38;11;9;
61592;PMS5003;47485;51.378;-1.342;2023-04-03T08:23:05;7;6;
61592;PMS5003;47485;51.378;-1.342;2023-04-03T08:25:33;8;5;
61592;PMS5003;47485;51.378;-1.342;2023-04-03T08:28:00;8;7;
61592;PMS5003;47485;51.378;-1.342;2023-04-03T08:30:27;8;8;
61592;PMS5003;47485;51.378;-1.342;2023-04-03T08:32:54;8;5;
61592;PMS5003;47485;51.378;-1.342;2023-04-03T08:35:20;8;7;
61592;PMS5003;47485;51.378;-1.342;2023-04-03T08:37:47;6;6;
61592;PMS5003;47485;51.378;-1.342;2023-04-03T08:40:15;7;4;
61592;PMS5003;47485;51.378;-1.342;2023-04-03T08:42:46;10;9;
61592;PMS5003;47485;51.378;-1.342;2023-04-03T08:45:26;5;5;
61592;PMS5003;47485;51.378;-1.342;2023-04-03T08:48:02;11;8;
61592;PMS5003;47485;51.378;-1.342;2023-04-03T08:50:34;8;6;
61592;PMS5003;47485;51.378;-1.342;2023-04-03T08:53:05;10;9;
61592;PMS5003;47485;51.378;-1.342;2023-04-03T08:55:39;13;10;
61592;PMS5003;47485;51.378;-1.342;2023-04-03T08:58:10;11;10;
61592;PMS5003;47485;51.378;-1.342;2023-04-03T09:00:43;14;13;
61592;PMS5003;47485;51.378;-1.342;2023-04-03T09:03:13;7;7;
61592;PMS5003;47485;51.378;-1.342;2023-04-03T09:05:42;5;5;
61592;PMS5003;47485;51.378;-1.342;2023-04-03T09:08:16;13;9;
61592;PMS5003;47485;51.378;-1.342;2023-04-03T09:10:49;5;5;
61592;PMS5003;47485;51.378;-1.342;2023-04-03T09:13:21;11;8;
61592;PMS5003;47485;51.378;-1.342;2023-04-03T09:15:52;8;6;
61592;PMS5003;47485;51.378;-1.342;2023-04-03T09:18:21;8;7;
61592;PMS5003;47485;51.378;-1.342;2023-04-03T09:20:57;8;8;
61592;PMS5003;47485;51.378;-1.342;2023-04-03T09:23:33;9;9;
61592;PMS5003;47485;51.378;-1.342;2023-04-03T09:26:16;11;9;
61592;PMS5003;47485;51.378;-1.342;2023-04-03T09:28:47;10;9;
61592;PMS5003;47485;51.378;-1.342;2023-04-03T09:31:16;12;10;
61592;PMS5003;47485;51.378;-1.342;2023-04-03T09:33:47;10;9;
61592;PMS5003;47485;51.378;-1.342;2023-04-03T09:36:37;12;10;
61592;PMS5003;47485;51.378;-1.342;2023-04-03T09:39:05;15;11;
61592;PMS5003;47485;51.378;-1.342;2023-04-03T09:41:35;15;13;
61592;PMS5003;47485;51.378;-1.342;2023-04-03T09:44:01;11;9;
61592;PMS5003;47485;51.378;-1.342;2023-04-03T09:46:29;8;6;
61592;PMS5003;47485;51.378;-1.342;2023-04-03T09:48:59;15;10;
61592;PMS5003;47485;51.378;-1.342;2023-04-03T09:51:29;12;9;
61592;PMS5003;47485;51.378;-1.342;2023-04-03T09:53:57;11;11;
61592;PMS5003;47485;51.378;-1.342;2023-04-03T09:56:25;13;13;
61592;PMS5003;47485;51.378;-1.342;2023-04-03T09:59:06;15;14;
61592;PMS5003;47485;51.378;-1.342;2023-04-03T10:01:41;14;14;
61592;PMS5003;47485;51.378;-1.342;2023-04-03T10:04:10;21;18;
61592;PMS5003;47485;51.378;-1.342;2023-04-03T10:06:40;17;14;
61592;PMS5003;47485;51.378;-1.342;2023-04-03T10:09:16;17;16;
61592;PMS5003;47485;51.378;-1.342;2023-04-03T10:11:58;17;13;
61592;PMS5003;47485;51.378;-1.342;2023-04-03T10:14:27;19;16;
61592;PMS5003;47485;51.378;-1.342;2023-04-03T10:16:58;15;15;
61592;PMS5003;47485;51.378;-1.342;2023-04-03T10:19:33;19;16;
61592;PMS5003;47485;51.378;-1.342;2023-04-03T10:22:09;20;18;
61592;PMS5003;47485;51.378;-1.342;2023-04-03T10:24:48;19;18;
61592;PMS5003;47485;51.378;-1.342;2023-04-03T10:27:24;17;17;
61592;PMS5003;47485;51.378;-1.342;2023-04-03T10:30:04;19;18;
61592;PMS5003;47485;51.378;-1.342;2023-04-03T10:32:46;17;17;
61592;PMS5003;47485;51.378;-1.342;2023-04-03T10:35:25;19;17;
61592;PMS5003;47485;51.378;-1.342;2023-04-03T10:38:04;23;18;
61592;PMS5003;47485;51.378;-1.342;2023-04-03T10:40:41;17;17;
61592;PMS5003;47485;51.378;-1.342;2023-04-03T10:43:20;19;15;
61592;PMS5003;47485;51.378;-1.342;2023-04-03T10:45:57;22;18;
61592;PMS5003;47485;51.378;-1.342;2023-04-03T10:48:34;21;18;
61592;PMS5003;47485;51.378;-1.342;2023-04-03T10:51:14;20;20;
61592;PMS5003;47485;51.378;-1.342;2023-04-03T10:53:50;21;19;
61592;PMS5003;47485;51.378;-1.342;2023-04-03T10:56:32;13;13;
61592;PMS5003;47485;51.378;-1.342;2023-04-03T10:59:09;21;19;
61592;PMS5003;47485;51.378;-1.342;2023-04-03T11:01:45;19;14;
61592;PMS5003;47485;51.378;-1.342;2023-04-03T11:04:14;15;14;
61592;PMS5003;47485;51.378;-1.342;2023-04-03T11:06:46;15;14;
61592;PMS5003;47485;51.378;-1.342;2023-04-03T11:09:19;19;18;
61592;PMS5003;47485;51.378;-1.342;2023-04-03T11:11:51;18;17;
61592;PMS5003;47485;51.378;-1.342;2023-04-03T11:14:24;16;16;
61592;PMS5003;47485;51.378;-1.342;2023-04-03T11:16:59;14;13;
61592;PMS5003;47485;51.378;-1.342;2023-04-03T11:19:34;19;16;
61592;PMS5003;47485;51.378;-1.342;2023-04-03T11:22:08;18;16;
61592;PMS5003;47485;51.378;-1.342;2023-04-03T11:24:41;15;13;
61592;PMS5003;47485;51.378;-1.342;2023-04-03T11:27:11;26;18;
61592;PMS5003;47485;51.378;-1.342;2023-04-03T11:29:43;23;19;
61592;PMS5003;47485;51.378;-1.342;2023-04-03T11:32:17;20;17;
61592;PMS5003;47485;51.378;-1.342;2023-04-03T11:34:58;21;21;
61592;PMS5003;47485;51.378;-1.342;2023-04-03T11:37:29;23;20;
61592;PMS5003;47485;51.378;-1.342;2023-04-03T11:40:01;21;19;
61592;PMS5003;47485;51.378;-1.342;2023-04-03T11:42:34;19;16;
61592;PMS5003;47485;51.378;-1.342;2023-04-03T11:45:37;17;16;
61592;PMS5003;47485;51.378;-1.342;2023-04-03T11:48:50;14;13;
61592;PMS5003;47485;51.378;-1.342;2023-04-03T11:51:38;16;16;
61592;PMS5003;47485;51.378;-1.342;2023-04-03T11:55:41;20;17;
61592;PMS5003;47485;51.378;-1.342;2023-04-03T11:58:11;29;21;
61592;PMS5003;47485;51.378;-1.342;2023-04-03T12:00:49;22;19;
61592;PMS5003;47485;51.378;-1.342;2023-04-03T12:03:56;21;20;
61592;PMS5003;47485;51.378;-1.342;2023-04-03T12:07:14;21;21;
61592;PMS5003;47485;51.378;-1.342;2023-04-03T12:09:57;19;18;
61592;PMS5003;47485;51.378;-1.342;2023-04-03T12:12:28;17;17;
61592;PMS5003;47485;51.378;-1.342;2023-04-03T12:15:11;19;17;
61592;PMS5003;47485;51.378;-1.342;2023-04-03T12:17:44;23;20;
61592;PMS5003;47485;51.378;-1.342;2023-04-03T12:20:45;21;18;
61592;PMS5003;47485;51.378;-1.342;2023-04-03T12:23:26;17;17;
61592;PMS5003;47485;51.378;-1.342;2023-04-03T12:26:02;22;21;
61592;PMS5003;47485;51.378;-1.342;2023-04-03T12:28:36;19;18;
61592;PMS5003;47485;51.378;-1.342;2023-04-03T12:31:05;20;19;
61592;PMS5003;47485;51.378;-1.342;2023-04-03T12:33:38;16;16;
61592;PMS5003;47485;51.378;-1.342;2023-04-03T12:36:18;17;16;
61592;PMS5003;47485;51.378;-1.342;2023-04-03T12:38:57;21;21;
61592;PMS5003;47485;51.378;-1.342;2023-04-03T12:41:33;19;18;
61592;PMS5003;47485;51.378;-1.342;2023-04-03T12:44:07;14;14;
61592;PMS5003;47485;51.378;-1.342;2023-04-03T12:46:47;15;14;
61592;PMS5003;47485;51.378;-1.342;2023-04-03T12:49:22;17;17;
61592;PMS5003;47485;51.378;-1.342;2023-04-03T12:51:59;18;16;
61592;PMS5003;47485;51.378;-1.342;2023-04-03T12:54:29;19;19;
61592;PMS5003;47485;51.378;-1.342;2023-04-03T12:57:16;20;20;
61592;PMS5003;47485;51.378;-1.342;2023-04-03T12:59:44;17;17;
61592;PMS5003;47485;51.378;-1.342;2023-04-03T13:02:17;20;16;
61592;PMS5003;47485;51.378;-1.342;2023-04-03T13:04:48;24;23;
61592;PMS5003;47485;51.378;-1.342;2023-04-03T13:07:23;18;17;
61592;PMS5003;47485;51.378;-1.342;2023-04-03T13:09:56;21;19;
61592;PMS5003;47485;51.378;-1.342;2023-04-03T13:12:24;18;17;
61592;PMS5003;47485;51.378;-1.342;2023-04-03T13:14:51;24;22;
61592;PMS5003;47485;51.378;-1.342;2023-04-03T13:17:19;19;18;
61592;PMS5003;47485;51.378;-1.342;2023-04-03T13:19:46;18;17;
61592;PMS5003;47485;51.378;-1.342;2023-04-03T13:22:18;19;15;
61592;PMS5003;47485;51.378;-1.342;2023-04-03T13:24:52;17;16;
61592;PMS5003;47485;51.378;-1.342;2023-04-03T13:27:20;17;17;
61592;PMS5003;47485;51.378;-1.342;2023-04-03T13:29:49;18;17;
61592;PMS5003;47485;51.378;-1.342;2023-04-03T13:32:19;18;18;
61592;PMS5003;47485;51.378;-1.342;2023-04-03T13:34:49;18;15;
61592;PMS5003;47485;51.378;-1.342;2023-04-03T13:37:21;19;17;
61592;PMS5003;47485;51.378;-1.342;2023-04-03T13:39:59;20;19;
61592;PMS5003;47485;51.378;-1.342;2023-04-03T13:42:28;19;18;
61592;PMS5003;47485;51.378;-1.342;2023-04-03T13:45:30;16;15;
61592;PMS5003;47485;51.378;-1.342;2023-04-03T13:48:16;19;18;
61592;PMS5003;47485;51.378;-1.342;2023-04-03T13:50:53;18;16;
61592;PMS5003;47485;51.378;-1.342;2023-04-03T13:53:25;15;15;
61592;PMS5003;47485;51.378;-1.342;2023-04-03T13:55:56;17;16;
61592;PMS5003;47485;51.378;-1.342;2023-04-03T13:58:27;23;21;
61592;PMS5003;47485;51.378;-1.342;2023-04-03T14:00:56;15;14;
61592;PMS5003;47485;51.378;-1.342;2023-04-03T14:03:34;22;18;
61592;PMS5003;47485;51.378;-1.342;2023-04-03T14:06:09;18;16;
61592;PMS5003;47485;51.378;-1.342;2023-04-03T14:08:37;15;15;
61592;PMS5003;47485;51.378;-1.342;2023-04-03T14:11:04;16;14;
61592;PMS5003;47485;51.378;-1.342;2023-04-03T14:13:31;15;13;
61592;PMS5003;47485;51.378;-1.342;2023-04-03T14:15:58;16;15;
61592;PMS5003;47485;51.378;-1.342;2023-04-03T14:18:25;19;15;
61592;PMS5003;47485;51.378;-1.342;2023-04-03T14:20:52;16;15;
61592;PMS5003;47485;51.378;-1.342;2023-04-03T14:23:18;14;13;
61592;PMS5003;47485;51.378;-1.342;2023-04-03T14:25:45;14;13;
61592;PMS5003;47485;51.378;-1.342;2023-04-03T14:28:14;13;13;
61592;PMS5003;47485;51.378;-1.342;2023-04-03T14:30:44;14;13;
61592;PMS5003;47485;51.378;-1.342;2023-04-03T14:33:12;14;14;
61592;PMS5003;47485;51.378;-1.342;2023-04-03T14:35:41;15;15;
61592;PMS5003;47485;51.378;-1.342;2023-04-03T14:38:12;15;14;
61592;PMS5003;47485;51.378;-1.342;2023-04-03T14:40:48;13;13;
61592;PMS5003;47485;51.378;-1.342;2023-04-03T14:43:16;15;14;
61592;PMS5003;47485;51.378;-1.342;2023-04-03T14:45:43;12;9;
61592;PMS5003;47485;51.378;-1.342;2023-04-03T14:48:10;14;12;
61592;PMS5003;47485;51.378;-1.342;2023-04-03T14:50:43;15;14;
61592;PMS5003;47485;51.378;-1.342;2023-04-03T14:53:10;15;13;
61592;PMS5003;47485;51.378;-1.342;2023-04-03T14:55:38;11;11;
61592;PMS5003;47485;51.378;-1.342;2023-04-03T14:58:05;10;10;
61592;PMS5003;47485;51.378;-1.342;2023-04-03T15:00:32;16;13;
61592;PMS5003;47485;51.378;-1.342;2023-04-03T15:02:59;11;9;
61592;PMS5003;47485;51.378;-1.342;2023-04-03T15:05:25;15;13;
61592;PMS5003;47485;51.378;-1.342;2023-04-03T15:07:53;13;11;
61592;PMS5003;47485;51.378;-1.342;2023-04-03T15:10:23;14;13;
61592;PMS5003;47485;51.378;-1.342;2023-04-03T15:12:51;10;10;
61592;PMS5003;47485;51.378;-1.342;2023-04-03T15:15:19;9;9;
61592;PMS5003;47485;51.378;-1.342;2023-04-03T15:17:50;9;8;
61592;PMS5003;47485;51.378;-1.342;2023-04-03T15:20:19;12;10;
61592;PMS5003;47485;51.378;-1.342;2023-04-03T15:22:48;11;10;
61592;PMS5003;47485;51.378;-1.342;2023-04-03T15:25:14;11;11;
61592;PMS5003;47485;51.378;-1.342;2023-04-03T15:27:42;12;12;
61592;PMS5003;47485;51.378;-1.342;2023-04-03T15:30:11;13;10;
61592;PMS5003;47485;51.378;-1.342;2023-04-03T15:32:41;13;12;
61592;PMS5003;47485;51.378;-1.342;2023-04-03T15:35:08;16;15;
61592;PMS5003;47485;51.378;-1.342;2023-04-03T15:37:35;11;11;
61592;PMS5003;47485;51.378;-1.342;2023-04-03T15:40:03;13;13;
61592;PMS5003;47485;51.378;-1.342;2023-04-03T15:42:31;12;10;
61592;PMS5003;47485;51.378;-1.342;2023-04-03T15:44:58;16;15;
61592;PMS5003;47485;51.378;-1.342;2023-04-03T15:47:26;10;10;
61592;PMS5003;47485;51.378;-1.342;2023-04-03T15:49:53;15;15;
61592;PMS5003;47485;51.378;-1.342;2023-04-03T15:52:21;12;11;
61592;PMS5003;47485;51.378;-1.342;2023-04-03T15:54:48;15;13;
61592;PMS5003;47485;51.378;-1.342;2023-04-03T15:57:15;14;12;
61592;PMS5003;47485;51.378;-1.342;2023-04-03T15:59:42;12;12;
61592;PMS5003;47485;51.378;-1.342;2023-04-03T16:02:09;13;12;
61592;PMS5003;47485;51.378;-1.342;2023-04-03T16:04:38;9;9;
61592;PMS5003;47485;51.378;-1.342;2023-04-03T16:07:06;11;11;
61592;PMS5003;47485;51.378;-1.342;2023-04-03T16:09:33;10;10;
61592;PMS5003;47485;51.378;-1.342;2023-04-03T16:12:02;9;9;
61592;PMS5003;47485;51.378;-1.342;2023-04-03T16:14:29;10;10;
61592;PMS5003;47485;51.378;-1.342;2023-04-03T16:16:56;8;8;
61592;PMS5003;47485;51.378;-1.342;2023-04-03T16:19:24;12;12;
61592;PMS5003;47485;51.378;-1.342;2023-04-03T16:21:51;14;13;
61592;PMS5003;47485;51.378;-1.342;2023-04-03T16:24:18;15;10;
61592;PMS5003;47485;51.378;-1.342;2023-04-03T16:26:45;9;8;
61592;PMS5003;47485;51.378;-1.342;2023-04-03T16:29:12;10;8;
61592;PMS5003;47485;51.378;-1.342;2023-04-03T16:31:39;16;10;
61592;PMS5003;47485;51.378;-1.342;2023-04-03T16:34:06;11;11;
61592;PMS5003;47485;51.378;-1.342;2023-04-03T16:36:33;11;10;
61592;PMS5003;47485;51.378;-1.342;2023-04-03T16:39:00;11;11;